Aérodrome :
LOGIN :

S'inscrire | Disclaimer

   EN    FR    IT 

 










Légende :    VFR   VFR Marginal   IFR   IFR Intensif   IFR Très Intensif
Visi : 
Plafond : 
>= 8 km
>= 3000ft
5 à 8 km
1000 à 3000 ft
1500m à 5 km
500 à 1000 ft
800 à 1500m
200 à 500 ft
< 800m
< 200 ft
Symboles :   Orages  Brouillard  Fortes neiges  Fortes précipitations  Vent > 20 kt
SIGMETs :   Divers  Orages  Givrage  Turbulence  Onde Orograph.  Cendres Volcan.






- Altitude de l'aérodrome : 18 ft


LIPC - Cervia AFB Ravenna

DERNIER METAR :
  • 050655Z 16005KT CAVOK 18/14 Q0997 RMK BKN SCT080 SCT160 VIS MIN 9999 WIND THR11 17003KT WIND THR29 16005KT BLU

METARs EXPIRÉS :
  • 050555Z 17006KT 9999 FEW030 17/14 Q0996 RMK BKN SCT080 VIS MIN 9999 WIND THR11 17007KT WIND THR29 18006KT BLU
  • 050455Z 23006KT 9999 FEW030 17/13 Q0996 RMK BKN SCT080 VIS MIN 9999 WIND THR11 24006KT WIND THR29 19005KT BLU

TAF TAF LIPC
Valide du 05 à 06h jusqu'au 05 à 15h UTC


050500Z 0506/0515 14010KT 9999 SCT030
TEMPO 0509/0512 5000 RA



MET'MAP, la Météo Aéronautique d'un coup d'oeil ! - Copyright ORBIFLY Décembre 2007 - Disclaimer

ORBIFLY MET'MAP TEAM :

Programmation & Développement : Alexandra Zaïnal
Sur une idée originale de : Baudouin d'Aumeries
Assistance à la programmation : Marc-Olivier Méhu
Soutien technique & logistique : Manuel Goepfert

Contact : metmap@orbifly.com




SOURCES & CREDITS :

   NOAA